sensor_id;sensor_type;location;lat;lon;timestamp;temperature;humidity
18884;DHT22;9574;47.282;9.640;2024-02-16T00:02:00;11.00;99.90
18884;DHT22;9574;47.282;9.640;2024-02-16T00:04:28;10.90;99.90
18884;DHT22;9574;47.282;9.640;2024-02-16T00:06:56;10.80;99.90
18884;DHT22;9574;47.282;9.640;2024-02-16T00:09:23;11.00;99.90
18884;DHT22;9574;47.282;9.640;2024-02-16T00:11:50;10.80;99.90
18884;DHT22;9574;47.282;9.640;2024-02-16T00:14:18;10.60;99.90
18884;DHT22;9574;47.282;9.640;2024-02-16T00:16:45;10.30;99.90
18884;DHT22;9574;47.282;9.640;2024-02-16T00:19:12;9.90;99.90
18884;DHT22;9574;47.282;9.640;2024-02-16T00:21:39;10.00;99.90
18884;DHT22;9574;47.282;9.640;2024-02-16T00:24:09;10.20;99.90
18884;DHT22;9574;47.282;9.640;2024-02-16T00:26:36;10.30;99.90
18884;DHT22;9574;47.282;9.640;2024-02-16T00:29:05;10.50;99.90
18884;DHT22;9574;47.282;9.640;2024-02-16T00:31:32;10.50;99.90
18884;DHT22;9574;47.282;9.640;2024-02-16T00:33:59;10.20;99.90
18884;DHT22;9574;47.282;9.640;2024-02-16T00:36:26;9.80;99.90
18884;DHT22;9574;47.282;9.640;2024-02-16T00:38:53;9.70;99.90
18884;DHT22;9574;47.282;9.640;2024-02-16T00:41:22;9.90;99.90
18884;DHT22;9574;47.282;9.640;2024-02-16T00:43:50;10.10;99.90
18884;DHT22;9574;47.282;9.640;2024-02-16T00:46:17;10.30;99.90
18884;DHT22;9574;47.282;9.640;2024-02-16T00:48:44;10.30;99.90
18884;DHT22;9574;47.282;9.640;2024-02-16T00:51:12;10.20;99.90
18884;DHT22;9574;47.282;9.640;2024-02-16T00:53:39;10.10;99.90
18884;DHT22;9574;47.282;9.640;2024-02-16T00:56:06;10.20;99.90
18884;DHT22;9574;47.282;9.640;2024-02-16T00:58:35;10.00;99.90
18884;DHT22;9574;47.282;9.640;2024-02-16T01:01:04;9.80;99.90
18884;DHT22;9574;47.282;9.640;2024-02-16T01:03:36;9.80;99.90
18884;DHT22;9574;47.282;9.640;2024-02-16T01:06:03;9.80;99.90
18884;DHT22;9574;47.282;9.640;2024-02-16T01:08:31;9.70;99.90
18884;DHT22;9574;47.282;9.640;2024-02-16T01:10:59;9.60;99.90
18884;DHT22;9574;47.282;9.640;2024-02-16T01:13:26;9.40;99.90
18884;DHT22;9574;47.282;9.640;2024-02-16T01:15:54;9.40;99.90
18884;DHT22;9574;47.282;9.640;2024-02-16T01:18:21;9.70;99.90
18884;DHT22;9574;47.282;9.640;2024-02-16T01:20:48;10.00;99.90
18884;DHT22;9574;47.282;9.640;2024-02-16T01:23:15;10.20;99.90
18884;DHT22;9574;47.282;9.640;2024-02-16T01:25:42;10.00;99.90
18884;DHT22;9574;47.282;9.640;2024-02-16T01:28:09;9.80;99.90
18884;DHT22;9574;47.282;9.640;2024-02-16T01:30:38;9.50;99.90
18884;DHT22;9574;47.282;9.640;2024-02-16T01:33:06;9.10;99.90
18884;DHT22;9574;47.282;9.640;2024-02-16T01:35:33;8.90;99.90
18884;DHT22;9574;47.282;9.640;2024-02-16T01:38:00;9.10;99.90
18884;DHT22;9574;47.282;9.640;2024-02-16T01:40:28;9.10;99.90
18884;DHT22;9574;47.282;9.640;2024-02-16T01:42:55;9.30;99.90
18884;DHT22;9574;47.282;9.640;2024-02-16T01:45:22;9.50;99.90
18884;DHT22;9574;47.282;9.640;2024-02-16T01:47:50;9.50;99.90
18884;DHT22;9574;47.282;9.640;2024-02-16T01:50:19;9.60;99.90
18884;DHT22;9574;47.282;9.640;2024-02-16T01:52:47;9.40;99.90
18884;DHT22;9574;47.282;9.640;2024-02-16T01:55:15;9.60;99.90
18884;DHT22;9574;47.282;9.640;2024-02-16T01:57:44;9.70;99.90
18884;DHT22;9574;47.282;9.640;2024-02-16T02:00:12;9.80;99.90
18884;DHT22;9574;47.282;9.640;2024-02-16T02:02:41;9.80;99.90
18884;DHT22;9574;47.282;9.640;2024-02-16T02:05:10;9.70;99.90
18884;DHT22;9574;47.282;9.640;2024-02-16T02:07:41;9.90;99.90
18884;DHT22;9574;47.282;9.640;2024-02-16T02:10:09;9.80;99.90
18884;DHT22;9574;47.282;9.640;2024-02-16T02:12:38;9.70;99.90
18884;DHT22;9574;47.282;9.640;2024-02-16T02:15:06;9.40;99.90
18884;DHT22;9574;47.282;9.640;2024-02-16T02:17:33;9.30;99.90
18884;DHT22;9574;47.282;9.640;2024-02-16T02:20:00;9.60;99.90
18884;DHT22;9574;47.282;9.640;2024-02-16T02:22:28;9.70;99.90
18884;DHT22;9574;47.282;9.640;2024-02-16T02:24:55;9.60;99.90
18884;DHT22;9574;47.282;9.640;2024-02-16T02:27:22;9.40;99.90
18884;DHT22;9574;47.282;9.640;2024-02-16T02:29:49;9.20;99.90
18884;DHT22;9574;47.282;9.640;2024-02-16T02:32:16;8.80;99.90
18884;DHT22;9574;47.282;9.640;2024-02-16T02:34:43;8.70;99.90
18884;DHT22;9574;47.282;9.640;2024-02-16T02:37:10;8.60;99.90
18884;DHT22;9574;47.282;9.640;2024-02-16T02:39:39;8.60;99.90
18884;DHT22;9574;47.282;9.640;2024-02-16T02:42:06;8.70;99.90
18884;DHT22;9574;47.282;9.640;2024-02-16T02:44:35;8.80;99.90
18884;DHT22;9574;47.282;9.640;2024-02-16T02:47:02;8.70;99.90
18884;DHT22;9574;47.282;9.640;2024-02-16T02:49:29;8.50;99.90
18884;DHT22;9574;47.282;9.640;2024-02-16T02:51:56;8.30;99.90
18884;DHT22;9574;47.282;9.640;2024-02-16T02:54:23;8.10;99.90
18884;DHT22;9574;47.282;9.640;2024-02-16T02:56:51;8.10;99.90
18884;DHT22;9574;47.282;9.640;2024-02-16T02:59:18;8.40;99.90
18884;DHT22;9574;47.282;9.640;2024-02-16T03:01:45;8.70;99.90
18884;DHT22;9574;47.282;9.640;2024-02-16T03:04:12;8.90;99.90
18884;DHT22;9574;47.282;9.640;2024-02-16T03:06:39;9.00;99.90
18884;DHT22;9574;47.282;9.640;2024-02-16T03:09:08;8.90;99.90
18884;DHT22;9574;47.282;9.640;2024-02-16T03:11:35;8.90;99.90
18884;DHT22;9574;47.282;9.640;2024-02-16T03:14:04;8.90;99.90
18884;DHT22;9574;47.282;9.640;2024-02-16T03:16:31;8.90;99.90
18884;DHT22;9574;47.282;9.640;2024-02-16T03:18:58;8.80;99.90
18884;DHT22;9574;47.282;9.640;2024-02-16T03:21:25;8.80;99.90
18884;DHT22;9574;47.282;9.640;2024-02-16T03:23:52;8.80;99.90
18884;DHT22;9574;47.282;9.640;2024-02-16T03:26:20;9.10;99.90
18884;DHT22;9574;47.282;9.640;2024-02-16T03:28:47;9.00;99.90
18884;DHT22;9574;47.282;9.640;2024-02-16T03:31:17;8.90;99.90
18884;DHT22;9574;47.282;9.640;2024-02-16T03:33:44;9.10;99.90
18884;DHT22;9574;47.282;9.640;2024-02-16T03:36:13;9.10;99.90
18884;DHT22;9574;47.282;9.640;2024-02-16T03:38:41;9.30;99.90
18884;DHT22;9574;47.282;9.640;2024-02-16T03:41:12;9.00;99.90
18884;DHT22;9574;47.282;9.640;2024-02-16T03:43:42;8.90;99.90
18884;DHT22;9574;47.282;9.640;2024-02-16T03:46:09;8.70;99.90
18884;DHT22;9574;47.282;9.640;2024-02-16T03:48:38;8.40;99.90
18884;DHT22;9574;47.282;9.640;2024-02-16T03:51:06;8.30;99.90
18884;DHT22;9574;47.282;9.640;2024-02-16T03:53:33;8.20;99.90
18884;DHT22;9574;47.282;9.640;2024-02-16T03:56:00;8.20;99.90
18884;DHT22;9574;47.282;9.640;2024-02-16T03:58:27;8.20;99.90
18884;DHT22;9574;47.282;9.640;2024-02-16T04:00:54;8.20;99.90
18884;DHT22;9574;47.282;9.640;2024-02-16T04:03:21;8.20;99.90
18884;DHT22;9574;47.282;9.640;2024-02-16T04:05:50;8.10;99.90
18884;DHT22;9574;47.282;9.640;2024-02-16T04:08:18;8.20;99.90
18884;DHT22;9574;47.282;9.640;2024-02-16T04:10:45;8.50;99.90
18884;DHT22;9574;47.282;9.640;2024-02-16T04:13:13;8.70;99.90
18884;DHT22;9574;47.282;9.640;2024-02-16T04:15:39;8.90;99.90
18884;DHT22;9574;47.282;9.640;2024-02-16T04:18:07;8.50;99.90
18884;DHT22;9574;47.282;9.640;2024-02-16T04:20:34;8.20;99.90
18884;DHT22;9574;47.282;9.640;2024-02-16T04:23:03;8.00;99.90
18884;DHT22;9574;47.282;9.640;2024-02-16T04:25:30;8.10;99.90
18884;DHT22;9574;47.282;9.640;2024-02-16T04:27:57;8.10;99.90
18884;DHT22;9574;47.282;9.640;2024-02-16T04:30:24;8.20;99.90
18884;DHT22;9574;47.282;9.640;2024-02-16T04:32:51;8.50;99.90
18884;DHT22;9574;47.282;9.640;2024-02-16T04:35:18;8.50;99.90
18884;DHT22;9574;47.282;9.640;2024-02-16T04:37:45;8.50;99.90
18884;DHT22;9574;47.282;9.640;2024-02-16T04:40:13;8.50;99.90
18884;DHT22;9574;47.282;9.640;2024-02-16T04:42:41;8.50;99.90
18884;DHT22;9574;47.282;9.640;2024-02-16T04:45:11;8.30;99.90
18884;DHT22;9574;47.282;9.640;2024-02-16T04:47:38;8.30;99.90
18884;DHT22;9574;47.282;9.640;2024-02-16T04:50:06;8.30;99.90
18884;DHT22;9574;47.282;9.640;2024-02-16T04:52:36;8.50;99.90
18884;DHT22;9574;47.282;9.640;2024-02-16T04:55:04;8.50;99.90
18884;DHT22;9574;47.282;9.640;2024-02-16T04:57:33;8.40;99.90
18884;DHT22;9574;47.282;9.640;2024-02-16T05:00:00;8.20;99.90
18884;DHT22;9574;47.282;9.640;2024-02-16T05:02:27;8.20;99.90
18884;DHT22;9574;47.282;9.640;2024-02-16T05:04:54;8.10;99.90
18884;DHT22;9574;47.282;9.640;2024-02-16T05:07:21;7.90;99.90
18884;DHT22;9574;47.282;9.640;2024-02-16T05:09:48;7.60;99.90
18884;DHT22;9574;47.282;9.640;2024-02-16T05:12:21;7.40;99.90
18884;DHT22;9574;47.282;9.640;2024-02-16T05:14:50;7.40;99.90
18884;DHT22;9574;47.282;9.640;2024-02-16T05:17:18;7.40;99.90
18884;DHT22;9574;47.282;9.640;2024-02-16T05:19:45;7.30;99.90
18884;DHT22;9574;47.282;9.640;2024-02-16T05:22:12;7.10;99.90
18884;DHT22;9574;47.282;9.640;2024-02-16T05:24:39;7.30;99.90
18884;DHT22;9574;47.282;9.640;2024-02-16T05:27:06;7.40;99.90
18884;DHT22;9574;47.282;9.640;2024-02-16T05:29:33;7.70;99.90
18884;DHT22;9574;47.282;9.640;2024-02-16T05:32:02;8.10;99.90
18884;DHT22;9574;47.282;9.640;2024-02-16T05:34:29;8.10;99.90
18884;DHT22;9574;47.282;9.640;2024-02-16T05:37:03;8.10;99.90
18884;DHT22;9574;47.282;9.640;2024-02-16T05:39:31;8.20;99.90
18884;DHT22;9574;47.282;9.640;2024-02-16T05:42:01;8.40;99.90
18884;DHT22;9574;47.282;9.640;2024-02-16T05:44:28;8.00;99.90
18884;DHT22;9574;47.282;9.640;2024-02-16T05:46:55;8.00;99.90
18884;DHT22;9574;47.282;9.640;2024-02-16T05:49:24;7.60;99.90
18884;DHT22;9574;47.282;9.640;2024-02-16T05:51:51;7.30;99.90
18884;DHT22;9574;47.282;9.640;2024-02-16T05:54:40;7.00;99.90
18884;DHT22;9574;47.282;9.640;2024-02-16T05:57:07;6.70;99.90
18884;DHT22;9574;47.282;9.640;2024-02-16T05:59:35;6.90;99.90
18884;DHT22;9574;47.282;9.640;2024-02-16T06:02:03;7.00;99.90
18884;DHT22;9574;47.282;9.640;2024-02-16T06:04:32;7.00;99.90
18884;DHT22;9574;47.282;9.640;2024-02-16T06:06:59;7.00;99.90
18884;DHT22;9574;47.282;9.640;2024-02-16T06:09:26;6.80;99.90
18884;DHT22;9574;47.282;9.640;2024-02-16T06:12:03;6.70;99.90
18884;DHT22;9574;47.282;9.640;2024-02-16T06:14:31;6.70;99.90
18884;DHT22;9574;47.282;9.640;2024-02-16T06:16:58;6.80;99.90
18884;DHT22;9574;47.282;9.640;2024-02-16T06:19:25;7.00;99.90
18884;DHT22;9574;47.282;9.640;2024-02-16T06:21:54;6.90;99.90
18884;DHT22;9574;47.282;9.640;2024-02-16T06:24:21;6.90;99.90
18884;DHT22;9574;47.282;9.640;2024-02-16T06:26:49;6.90;99.90
18884;DHT22;9574;47.282;9.640;2024-02-16T06:29:17;6.90;99.90
18884;DHT22;9574;47.282;9.640;2024-02-16T06:31:45;7.00;99.90
18884;DHT22;9574;47.282;9.640;2024-02-16T06:34:12;6.80;99.90
18884;DHT22;9574;47.282;9.640;2024-02-16T06:36:38;6.70;99.90
18884;DHT22;9574;47.282;9.640;2024-02-16T06:39:07;6.80;99.90
18884;DHT22;9574;47.282;9.640;2024-02-16T06:41:35;7.00;99.90
18884;DHT22;9574;47.282;9.640;2024-02-16T06:44:02;7.10;99.90
18884;DHT22;9574;47.282;9.640;2024-02-16T06:46:29;7.20;99.90
18884;DHT22;9574;47.282;9.640;2024-02-16T06:48:56;7.40;99.90
18884;DHT22;9574;47.282;9.640;2024-02-16T06:51:24;7.30;99.90
18884;DHT22;9574;47.282;9.640;2024-02-16T06:53:52;7.30;99.90
18884;DHT22;9574;47.282;9.640;2024-02-16T06:56:21;7.40;99.90
18884;DHT22;9574;47.282;9.640;2024-02-16T06:58:48;7.40;99.90
18884;DHT22;9574;47.282;9.640;2024-02-16T07:01:15;7.30;99.90
18884;DHT22;9574;47.282;9.640;2024-02-16T07:03:43;7.40;99.90
18884;DHT22;9574;47.282;9.640;2024-02-16T07:06:11;7.30;99.90
18884;DHT22;9574;47.282;9.640;2024-02-16T07:08:39;7.40;99.90
18884;DHT22;9574;47.282;9.640;2024-02-16T07:11:06;7.40;99.90
18884;DHT22;9574;47.282;9.640;2024-02-16T07:13:35;7.40;99.90
18884;DHT22;9574;47.282;9.640;2024-02-16T07:16:04;7.50;99.90
18884;DHT22;9574;47.282;9.640;2024-02-16T07:18:32;7.50;99.90
18884;DHT22;9574;47.282;9.640;2024-02-16T07:20:59;7.50;99.90
18884;DHT22;9574;47.282;9.640;2024-02-16T07:23:26;7.60;99.90
18884;DHT22;9574;47.282;9.640;2024-02-16T07:25:54;8.00;99.90
18884;DHT22;9574;47.282;9.640;2024-02-16T07:28:22;8.00;99.90
18884;DHT22;9574;47.282;9.640;2024-02-16T07:30:50;8.10;99.90
18884;DHT22;9574;47.282;9.640;2024-02-16T07:33:17;8.40;99.90
18884;DHT22;9574;47.282;9.640;2024-02-16T07:35:44;8.70;99.90
18884;DHT22;9574;47.282;9.640;2024-02-16T07:38:11;8.60;99.90
18884;DHT22;9574;47.282;9.640;2024-02-16T07:40:38;8.50;99.90
18884;DHT22;9574;47.282;9.640;2024-02-16T07:43:05;8.50;99.90
18884;DHT22;9574;47.282;9.640;2024-02-16T07:45:34;8.30;99.90
18884;DHT22;9574;47.282;9.640;2024-02-16T07:48:02;8.50;99.90
18884;DHT22;9574;47.282;9.640;2024-02-16T07:50:31;8.40;99.90
18884;DHT22;9574;47.282;9.640;2024-02-16T07:52:58;8.30;99.90
18884;DHT22;9574;47.282;9.640;2024-02-16T07:55:25;8.30;99.90
18884;DHT22;9574;47.282;9.640;2024-02-16T07:57:52;8.70;99.90
18884;DHT22;9574;47.282;9.640;2024-02-16T08:00:19;8.90;99.90
18884;DHT22;9574;47.282;9.640;2024-02-16T08:02:46;8.90;99.90
18884;DHT22;9574;47.282;9.640;2024-02-16T08:05:14;8.80;99.90
18884;DHT22;9574;47.282;9.640;2024-02-16T08:07:44;8.70;99.90
18884;DHT22;9574;47.282;9.640;2024-02-16T08:10:12;8.90;99.90
18884;DHT22;9574;47.282;9.640;2024-02-16T08:12:39;8.90;99.90
18884;DHT22;9574;47.282;9.640;2024-02-16T08:15:07;8.90;99.90
18884;DHT22;9574;47.282;9.640;2024-02-16T08:17:34;8.90;99.90
18884;DHT22;9574;47.282;9.640;2024-02-16T08:20:02;8.90;99.90
18884;DHT22;9574;47.282;9.640;2024-02-16T08:22:30;9.00;99.90
18884;DHT22;9574;47.282;9.640;2024-02-16T08:24:58;9.20;99.90
18884;DHT22;9574;47.282;9.640;2024-02-16T08:27:24;9.50;99.90
18884;DHT22;9574;47.282;9.640;2024-02-16T08:29:52;9.80;99.90
18884;DHT22;9574;47.282;9.640;2024-02-16T08:32:19;10.20;99.90
18884;DHT22;9574;47.282;9.640;2024-02-16T08:34:46;10.50;99.90
18884;DHT22;9574;47.282;9.640;2024-02-16T08:37:16;10.80;99.90
18884;DHT22;9574;47.282;9.640;2024-02-16T08:39:44;11.00;99.90
18884;DHT22;9574;47.282;9.640;2024-02-16T08:42:11;11.30;99.90
18884;DHT22;9574;47.282;9.640;2024-02-16T08:44:38;11.50;99.90
18884;DHT22;9574;47.282;9.640;2024-02-16T08:47:06;11.60;99.90
18884;DHT22;9574;47.282;9.640;2024-02-16T08:49:33;11.70;99.90
18884;DHT22;9574;47.282;9.640;2024-02-16T08:52:00;11.60;99.90
18884;DHT22;9574;47.282;9.640;2024-02-16T08:54:27;11.50;99.90
18884;DHT22;9574;47.282;9.640;2024-02-16T08:56:55;11.50;99.90
18884;DHT22;9574;47.282;9.640;2024-02-16T08:59:22;11.50;99.90
18884;DHT22;9574;47.282;9.640;2024-02-16T09:01:49;11.40;99.90
18884;DHT22;9574;47.282;9.640;2024-02-16T09:04:16;11.50;99.90
18884;DHT22;9574;47.282;9.640;2024-02-16T09:06:43;11.50;99.90
18884;DHT22;9574;47.282;9.640;2024-02-16T09:09:10;11.60;99.90
18884;DHT22;9574;47.282;9.640;2024-02-16T09:11:37;11.70;99.90
18884;DHT22;9574;47.282;9.640;2024-02-16T09:14:05;12.00;99.90
18884;DHT22;9574;47.282;9.640;2024-02-16T09:16:32;12.50;99.90
18884;DHT22;9574;47.282;9.640;2024-02-16T09:18:59;12.80;99.90
18884;DHT22;9574;47.282;9.640;2024-02-16T09:21:26;13.20;99.90
18884;DHT22;9574;47.282;9.640;2024-02-16T09:23:55;13.50;99.90
18884;DHT22;9574;47.282;9.640;2024-02-16T09:26:24;13.80;99.90
18884;DHT22;9574;47.282;9.640;2024-02-16T09:28:55;14.20;99.90
18884;DHT22;9574;47.282;9.640;2024-02-16T09:31:24;14.60;99.90
18884;DHT22;9574;47.282;9.640;2024-02-16T09:33:52;15.10;99.90
18884;DHT22;9574;47.282;9.640;2024-02-16T09:36:19;15.40;99.90
18884;DHT22;9574;47.282;9.640;2024-02-16T09:38:46;15.50;99.90
18884;DHT22;9574;47.282;9.640;2024-02-16T09:41:13;15.80;99.90
18884;DHT22;9574;47.282;9.640;2024-02-16T09:43:42;16.00;99.90
18884;DHT22;9574;47.282;9.640;2024-02-16T09:46:09;16.10;99.90
18884;DHT22;9574;47.282;9.640;2024-02-16T09:48:39;16.10;99.90
18884;DHT22;9574;47.282;9.640;2024-02-16T09:51:09;16.20;99.90
18884;DHT22;9574;47.282;9.640;2024-02-16T09:53:36;16.10;99.90
18884;DHT22;9574;47.282;9.640;2024-02-16T09:56:05;16.30;99.90
18884;DHT22;9574;47.282;9.640;2024-02-16T09:58:34;16.50;99.90
18884;DHT22;9574;47.282;9.640;2024-02-16T10:01:02;16.50;99.90
18884;DHT22;9574;47.282;9.640;2024-02-16T10:03:30;16.50;99.90
18884;DHT22;9574;47.282;9.640;2024-02-16T10:06:06;16.60;99.90
18884;DHT22;9574;47.282;9.640;2024-02-16T10:08:34;16.70;99.90
18884;DHT22;9574;47.282;9.640;2024-02-16T10:11:01;16.80;99.90
18884;DHT22;9574;47.282;9.640;2024-02-16T10:13:29;16.90;99.90
18884;DHT22;9574;47.282;9.640;2024-02-16T10:16:05;16.80;99.90
18884;DHT22;9574;47.282;9.640;2024-02-16T10:18:34;16.70;99.90
18884;DHT22;9574;47.282;9.640;2024-02-16T10:21:01;16.60;99.90
18884;DHT22;9574;47.282;9.640;2024-02-16T10:23:30;16.80;99.90
18884;DHT22;9574;47.282;9.640;2024-02-16T10:25:58;17.10;99.90
18884;DHT22;9574;47.282;9.640;2024-02-16T10:28:26;17.30;99.90
18884;DHT22;9574;47.282;9.640;2024-02-16T10:30:58;17.30;99.90
18884;DHT22;9574;47.282;9.640;2024-02-16T10:33:27;17.30;99.90
18884;DHT22;9574;47.282;9.640;2024-02-16T10:35:55;17.40;99.90
18884;DHT22;9574;47.282;9.640;2024-02-16T10:38:22;17.70;99.90
18884;DHT22;9574;47.282;9.640;2024-02-16T10:40:51;17.70;99.90
18884;DHT22;9574;47.282;9.640;2024-02-16T10:43:21;17.70;99.90
18884;DHT22;9574;47.282;9.640;2024-02-16T10:45:49;17.70;99.90
18884;DHT22;9574;47.282;9.640;2024-02-16T10:48:18;18.00;99.90
18884;DHT22;9574;47.282;9.640;2024-02-16T10:50:45;18.30;99.90
18884;DHT22;9574;47.282;9.640;2024-02-16T10:53:21;18.50;99.90
18884;DHT22;9574;47.282;9.640;2024-02-16T10:55:51;18.60;99.90
18884;DHT22;9574;47.282;9.640;2024-02-16T10:58:18;18.90;99.90
18884;DHT22;9574;47.282;9.640;2024-02-16T11:00:50;19.10;99.90
18884;DHT22;9574;47.282;9.640;2024-02-16T11:03:18;19.20;99.90
18884;DHT22;9574;47.282;9.640;2024-02-16T11:05:48;19.40;99.90
18884;DHT22;9574;47.282;9.640;2024-02-16T11:08:17;19.60;99.90
18884;DHT22;9574;47.282;9.640;2024-02-16T11:10:56;19.70;99.90
18884;DHT22;9574;47.282;9.640;2024-02-16T11:13:24;19.80;99.90
18884;DHT22;9574;47.282;9.640;2024-02-16T11:15:58;19.80;99.90
18884;DHT22;9574;47.282;9.640;2024-02-16T11:18:27;19.80;99.90
18884;DHT22;9574;47.282;9.640;2024-02-16T11:20:54;19.70;99.90
18884;DHT22;9574;47.282;9.640;2024-02-16T11:23:27;19.60;99.90
18884;DHT22;9574;47.282;9.640;2024-02-16T11:25:59;19.40;99.90
18884;DHT22;9574;47.282;9.640;2024-02-16T11:28:27;19.30;99.90
18884;DHT22;9574;47.282;9.640;2024-02-16T11:30:54;19.10;99.90
18884;DHT22;9574;47.282;9.640;2024-02-16T11:33:21;19.10;99.90
18884;DHT22;9574;47.282;9.640;2024-02-16T11:35:55;19.00;99.90
18884;DHT22;9574;47.282;9.640;2024-02-16T11:38:23;18.80;99.90
18884;DHT22;9574;47.282;9.640;2024-02-16T11:40:55;18.70;99.90
18884;DHT22;9574;47.282;9.640;2024-02-16T11:43:23;18.60;99.90
18884;DHT22;9574;47.282;9.640;2024-02-16T11:45:50;18.50;99.90
18884;DHT22;9574;47.282;9.640;2024-02-16T11:48:22;18.40;99.90
18884;DHT22;9574;47.282;9.640;2024-02-16T11:51:00;18.20;99.90
18884;DHT22;9574;47.282;9.640;2024-02-16T11:53:27;18.10;99.90
18884;DHT22;9574;47.282;9.640;2024-02-16T11:55:56;17.90;99.90
18884;DHT22;9574;47.282;9.640;2024-02-16T11:58:24;17.80;99.90
18884;DHT22;9574;47.282;9.640;2024-02-16T12:00:51;17.50;99.90
18884;DHT22;9574;47.282;9.640;2024-02-16T12:03:19;17.40;99.90
18884;DHT22;9574;47.282;9.640;2024-02-16T12:05:50;17.20;99.90
18884;DHT22;9574;47.282;9.640;2024-02-16T12:08:18;17.20;99.90
18884;DHT22;9574;47.282;9.640;2024-02-16T12:10:46;17.00;99.90
18884;DHT22;9574;47.282;9.640;2024-02-16T12:13:16;17.00;99.90
18884;DHT22;9574;47.282;9.640;2024-02-16T12:15:44;17.10;99.90
18884;DHT22;9574;47.282;9.640;2024-02-16T12:18:19;17.10;99.90
18884;DHT22;9574;47.282;9.640;2024-02-16T12:20:57;17.10;99.90
18884;DHT22;9574;47.282;9.640;2024-02-16T12:23:24;17.20;99.90
18884;DHT22;9574;47.282;9.640;2024-02-16T12:25:51;17.30;99.90
18884;DHT22;9574;47.282;9.640;2024-02-16T12:28:23;17.40;99.90
18884;DHT22;9574;47.282;9.640;2024-02-16T12:30:50;17.50;99.90
18884;DHT22;9574;47.282;9.640;2024-02-16T12:33:17;17.60;99.90
18884;DHT22;9574;47.282;9.640;2024-02-16T12:35:44;17.80;99.90
18884;DHT22;9574;47.282;9.640;2024-02-16T12:38:11;18.00;99.90
18884;DHT22;9574;47.282;9.640;2024-02-16T12:40:38;18.30;99.90
18884;DHT22;9574;47.282;9.640;2024-02-16T12:43:05;18.40;99.90
18884;DHT22;9574;47.282;9.640;2024-02-16T12:45:35;18.40;99.90
18884;DHT22;9574;47.282;9.640;2024-02-16T12:48:03;18.30;99.90
18884;DHT22;9574;47.282;9.640;2024-02-16T12:50:31;18.30;99.90
18884;DHT22;9574;47.282;9.640;2024-02-16T12:52:58;18.20;99.90
18884;DHT22;9574;47.282;9.640;2024-02-16T12:55:25;18.20;99.90
18884;DHT22;9574;47.282;9.640;2024-02-16T12:57:52;18.10;99.90
18884;DHT22;9574;47.282;9.640;2024-02-16T13:00:19;18.00;99.90
18884;DHT22;9574;47.282;9.640;2024-02-16T13:02:47;17.90;99.90
18884;DHT22;9574;47.282;9.640;2024-02-16T13:05:14;17.90;99.90
18884;DHT22;9574;47.282;9.640;2024-02-16T13:07:41;17.90;99.90
18884;DHT22;9574;47.282;9.640;2024-02-16T13:10:09;18.00;99.90
18884;DHT22;9574;47.282;9.640;2024-02-16T13:12:37;17.90;99.90
18884;DHT22;9574;47.282;9.640;2024-02-16T13:15:05;17.70;99.90
18884;DHT22;9574;47.282;9.640;2024-02-16T13:17:33;17.70;99.90
18884;DHT22;9574;47.282;9.640;2024-02-16T13:20:02;17.70;99.90
18884;DHT22;9574;47.282;9.640;2024-02-16T13:22:33;17.60;99.90
18884;DHT22;9574;47.282;9.640;2024-02-16T13:25:01;17.60;99.90
18884;DHT22;9574;47.282;9.640;2024-02-16T13:27:28;18.00;99.90
18884;DHT22;9574;47.282;9.640;2024-02-16T13:29:55;18.50;99.90
18884;DHT22;9574;47.282;9.640;2024-02-16T13:32:22;19.10;99.90
18884;DHT22;9574;47.282;9.640;2024-02-16T13:34:50;19.40;99.90
18884;DHT22;9574;47.282;9.640;2024-02-16T13:37:18;19.70;99.90
18884;DHT22;9574;47.282;9.640;2024-02-16T13:39:45;19.70;99.90
18884;DHT22;9574;47.282;9.640;2024-02-16T13:42:13;19.80;99.90
18884;DHT22;9574;47.282;9.640;2024-02-16T13:44:40;19.90;99.90
18884;DHT22;9574;47.282;9.640;2024-02-16T13:47:07;19.70;99.90
18884;DHT22;9574;47.282;9.640;2024-02-16T13:49:34;19.70;99.90
18884;DHT22;9574;47.282;9.640;2024-02-16T13:52:01;19.80;99.90
18884;DHT22;9574;47.282;9.640;2024-02-16T13:54:29;19.90;99.90
18884;DHT22;9574;47.282;9.640;2024-02-16T13:56:56;20.10;99.90
18884;DHT22;9574;47.282;9.640;2024-02-16T13:59:23;20.10;99.90
18884;DHT22;9574;47.282;9.640;2024-02-16T14:01:50;20.20;99.90
18884;DHT22;9574;47.282;9.640;2024-02-16T14:04:17;20.40;99.90
18884;DHT22;9574;47.282;9.640;2024-02-16T14:06:45;20.50;99.90
18884;DHT22;9574;47.282;9.640;2024-02-16T14:09:12;20.60;99.90
18884;DHT22;9574;47.282;9.640;2024-02-16T14:11:41;20.60;99.90
18884;DHT22;9574;47.282;9.640;2024-02-16T14:14:08;20.60;99.90
18884;DHT22;9574;47.282;9.640;2024-02-16T14:16:35;20.40;99.90
18884;DHT22;9574;47.282;9.640;2024-02-16T14:19:03;20.30;99.90
18884;DHT22;9574;47.282;9.640;2024-02-16T14:21:30;20.20;99.90
18884;DHT22;9574;47.282;9.640;2024-02-16T14:23:58;20.00;99.90
18884;DHT22;9574;47.282;9.640;2024-02-16T14:26:25;19.70;99.90
18884;DHT22;9574;47.282;9.640;2024-02-16T14:28:53;19.70;99.90
18884;DHT22;9574;47.282;9.640;2024-02-16T14:31:21;19.80;99.90
18884;DHT22;9574;47.282;9.640;2024-02-16T14:33:48;19.80;99.90
18884;DHT22;9574;47.282;9.640;2024-02-16T14:36:15;19.80;99.90
18884;DHT22;9574;47.282;9.640;2024-02-16T14:38:42;19.90;99.90
18884;DHT22;9574;47.282;9.640;2024-02-16T14:41:09;19.80;99.90
18884;DHT22;9574;47.282;9.640;2024-02-16T14:43:36;19.90;99.90
18884;DHT22;9574;47.282;9.640;2024-02-16T14:46:05;19.90;99.90
18884;DHT22;9574;47.282;9.640;2024-02-16T14:48:32;19.80;99.90
18884;DHT22;9574;47.282;9.640;2024-02-16T14:50:59;19.60;99.90
18884;DHT22;9574;47.282;9.640;2024-02-16T14:53:26;19.60;99.90
18884;DHT22;9574;47.282;9.640;2024-02-16T14:55:55;19.30;99.90
18884;DHT22;9574;47.282;9.640;2024-02-16T14:58:22;19.20;99.90
18884;DHT22;9574;47.282;9.640;2024-02-16T15:00:49;19.30;99.90
18884;DHT22;9574;47.282;9.640;2024-02-16T15:03:18;19.40;99.90
18884;DHT22;9574;47.282;9.640;2024-02-16T15:05:45;19.40;99.90
18884;DHT22;9574;47.282;9.640;2024-02-16T15:08:12;19.20;99.90
18884;DHT22;9574;47.282;9.640;2024-02-16T15:10:39;19.10;99.90
18884;DHT22;9574;47.282;9.640;2024-02-16T15:13:08;19.10;99.90
18884;DHT22;9574;47.282;9.640;2024-02-16T15:15:35;19.10;99.90
18884;DHT22;9574;47.282;9.640;2024-02-16T15:18:02;19.00;99.90
18884;DHT22;9574;47.282;9.640;2024-02-16T15:20:31;19.00;99.90
18884;DHT22;9574;47.282;9.640;2024-02-16T15:22:58;19.00;99.90
18884;DHT22;9574;47.282;9.640;2024-02-16T15:25:25;18.90;99.90
18884;DHT22;9574;47.282;9.640;2024-02-16T15:27:52;18.80;99.90
18884;DHT22;9574;47.282;9.640;2024-02-16T15:30:20;18.80;99.90
18884;DHT22;9574;47.282;9.640;2024-02-16T15:32:47;18.70;99.90
18884;DHT22;9574;47.282;9.640;2024-02-16T15:35:14;18.70;99.90
18884;DHT22;9574;47.282;9.640;2024-02-16T15:37:43;18.60;99.90
18884;DHT22;9574;47.282;9.640;2024-02-16T15:40:11;18.70;99.90
18884;DHT22;9574;47.282;9.640;2024-02-16T15:42:39;18.70;99.90
18884;DHT22;9574;47.282;9.640;2024-02-16T15:45:08;18.70;99.90
18884;DHT22;9574;47.282;9.640;2024-02-16T15:47:36;18.70;99.90
18884;DHT22;9574;47.282;9.640;2024-02-16T15:50:05;18.60;99.90
18884;DHT22;9574;47.282;9.640;2024-02-16T15:52:33;18.50;99.90
18884;DHT22;9574;47.282;9.640;2024-02-16T15:55:01;18.40;99.90
18884;DHT22;9574;47.282;9.640;2024-02-16T15:57:28;18.20;99.90